Terminal Aerodrome Forecast
Issued by NWS

Home | Current Version | Previous Version | Text Only | Print | Product List | Glossary On
Versions: 1 2 3 4 5 6 7 8 9 10 11 12 13 14 15 16 17 18 19 20 21 22 23 24
527
FTUS45 KREV 212339
TAFRNO
TAF
KRNO 212339Z 2200/2224 VRB03KT P6SM FEW070 BKN200
     FM221200 27010G20KT 6SM -SN SCT020 BKN030
     FM221400 35007KT 1/2SM SN FZFG SCT007 OVC012
     FM221600 30010KT 3SM -SN FEW005 OVC018
     FM221800 28010G18KT P6SM VCSH FEW020 BKN040=

USA.gov is the U.S. government's official web portal to all federal, state and local government web resources and services.